createdAt,value
2023-01-09T00:02:18.886Z,37.40
2023-01-09T00:05:04.304Z,40.20
2023-01-09T00:07:49.967Z,40.00
2023-01-09T00:10:35.271Z,39.10
2023-01-09T00:13:20.537Z,39.30
2023-01-09T00:16:07.237Z,38.20
2023-01-09T00:18:52.871Z,38.80
2023-01-09T00:21:38.407Z,38.40
2023-01-09T00:24:23.655Z,38.30
2023-01-09T00:27:08.699Z,38.30
2023-01-09T00:29:54.150Z,37.70
2023-01-09T00:32:40.270Z,37.30
2023-01-09T00:35:27.457Z,37.10
2023-01-09T00:38:12.701Z,37.80
2023-01-09T00:40:59.433Z,37.10
2023-01-09T00:43:54.533Z,37.00
2023-01-09T00:46:46.364Z,36.90
2023-01-09T00:49:36.919Z,36.90
2023-01-09T00:52:22.285Z,35.50
2023-01-09T00:55:12.324Z,35.40
2023-01-09T00:57:57.312Z,34.90
2023-01-09T01:00:42.488Z,37.20
2023-01-09T01:03:28.157Z,35.20
2023-01-09T01:06:35.554Z,35.60
2023-01-09T01:09:20.619Z,36.00
2023-01-09T01:12:06.468Z,34.70
2023-01-09T01:14:52.596Z,35.50
2023-01-09T01:17:39.384Z,35.60
2023-01-09T01:20:24.908Z,36.40
2023-01-09T01:23:10.512Z,35.60
2023-01-09T01:25:55.544Z,36.20
2023-01-09T01:28:41.176Z,34.80
2023-01-09T01:31:26.136Z,35.00
2023-01-09T01:34:11.471Z,35.00
2023-01-09T01:36:56.571Z,36.40
2023-01-09T01:39:42.163Z,35.30
2023-01-09T01:42:27.731Z,35.30
2023-01-09T01:45:16.483Z,34.40
2023-01-09T01:48:07.727Z,36.60
2023-01-09T01:51:00.348Z,35.90
2023-01-09T01:53:50.807Z,35.20
2023-01-09T01:56:41.773Z,35.40
2023-01-09T01:59:36.948Z,34.40
2023-01-09T02:02:28.348Z,34.80
2023-01-09T02:05:14.689Z,34.70
2023-01-09T02:07:59.659Z,35.50
2023-01-09T02:10:45.651Z,33.00
2023-01-09T02:13:33.970Z,33.90
2023-01-09T02:16:26.151Z,33.50
2023-01-09T02:19:39.600Z,33.50
2023-01-09T02:22:40.481Z,34.30
2023-01-09T02:26:03.699Z,33.60
2023-01-09T02:29:04.671Z,33.40
2023-01-09T02:32:01.759Z,33.50
2023-01-09T02:35:17.610Z,32.10
2023-01-09T02:38:21.779Z,32.00
2023-01-09T02:41:12.827Z,32.50
2023-01-09T02:44:19.932Z,32.40
2023-01-09T02:47:28.702Z,32.40
2023-01-09T02:50:22.309Z,31.60
2023-01-09T02:53:42.076Z,31.30
2023-01-09T02:57:11.092Z,30.30
2023-01-09T02:59:56.269Z,29.80
2023-01-09T03:03:03.289Z,30.80
2023-01-09T03:05:59.891Z,30.20
2023-01-09T03:08:49.599Z,29.40
2023-01-09T03:11:41.061Z,30.00
2023-01-09T03:14:29.686Z,30.70
2023-01-09T03:17:21.938Z,30.50
2023-01-09T03:20:09.713Z,30.90
2023-01-09T03:22:56.337Z,30.50
2023-01-09T03:25:41.646Z,30.30
2023-01-09T03:28:30.100Z,30.60
2023-01-09T03:31:16.157Z,30.70
2023-01-09T03:34:01.351Z,29.80
2023-01-09T03:36:46.606Z,29.80
2023-01-09T03:39:32.590Z,31.00
2023-01-09T03:42:18.220Z,30.90
2023-01-09T03:45:03.839Z,30.20
2023-01-09T03:47:49.051Z,30.80
2023-01-09T03:50:34.913Z,31.20
2023-01-09T03:53:21.670Z,30.40
2023-01-09T03:56:07.322Z,31.50
2023-01-09T03:58:53.083Z,30.80
2023-01-09T04:01:39.220Z,31.40
2023-01-09T04:04:24.638Z,30.50
2023-01-09T04:07:10.223Z,30.90
2023-01-09T04:09:55.108Z,30.60
2023-01-09T04:12:39.969Z,30.10
2023-01-09T04:15:25.214Z,30.70
2023-01-09T04:18:10.508Z,29.30
2023-01-09T04:20:55.653Z,31.20
2023-01-09T04:23:41.352Z,30.30
2023-01-09T04:26:26.467Z,29.90
2023-01-09T04:29:11.779Z,29.60
2023-01-09T04:31:57.390Z,29.30
2023-01-09T04:34:42.463Z,29.80
2023-01-09T04:37:27.859Z,29.90
2023-01-09T04:40:13.545Z,29.40
2023-01-09T04:42:58.603Z,30.00
2023-01-09T04:45:47.138Z,29.50
2023-01-09T04:48:32.398Z,29.60
2023-01-09T04:51:17.726Z,28.50
2023-01-09T04:54:03.624Z,28.80
2023-01-09T04:56:49.844Z,29.00
2023-01-09T04:59:35.236Z,28.70
2023-01-09T05:02:20.270Z,28.50
2023-01-09T05:05:06.356Z,27.60
2023-01-09T05:07:51.537Z,27.70
2023-01-09T05:10:36.629Z,26.70
2023-01-09T05:13:22.221Z,27.30
2023-01-09T05:16:08.265Z,27.30
2023-01-09T05:18:56.684Z,27.40
2023-01-09T05:21:42.114Z,27.70
2023-01-09T05:24:27.679Z,27.40
2023-01-09T05:27:13.067Z,26.50
2023-01-09T05:29:58.890Z,26.10
2023-01-09T05:34:24.489Z,23.40
2023-01-09T05:37:11.364Z,26.30
2023-01-09T05:39:59.400Z,26.60
2023-01-09T05:43:03.524Z,27.30
2023-01-09T05:45:50.644Z,26.30
2023-01-09T07:03:20.051Z,18.90
2023-01-09T07:06:31.187Z,19.20
2023-01-09T07:09:18.077Z,23.60
2023-01-09T07:12:05.368Z,23.20
2023-01-09T07:15:20.414Z,22.80
2023-01-09T07:22:59.569Z,21.60
2023-01-09T07:26:02.695Z,21.90
2023-01-09T07:32:40.641Z,21.20
2023-01-09T07:35:29.024Z,21.70
2023-01-09T07:42:41.418Z,21.50
2023-01-09T07:45:29.063Z,20.70
2023-01-09T07:56:26.276Z,20.70
2023-01-09T08:00:07.702Z,20.50
2023-01-09T08:02:56.445Z,20.50
2023-01-09T08:06:26.573Z,20.40
2023-01-09T08:10:06.226Z,19.40
2023-01-09T08:12:53.520Z,19.60
2023-01-09T08:15:43.905Z,19.90
2023-01-09T08:19:14.619Z,20.20
2023-01-09T08:29:08.205Z,19.60
2023-01-09T08:32:18.870Z,19.80
2023-01-09T08:35:33.418Z,19.30
2023-01-09T08:38:55.210Z,19.20
2023-01-09T08:42:32.868Z,19.70
2023-01-09T08:49:06.096Z,19.50
2023-01-09T08:51:57.904Z,19.50
2023-01-09T08:54:53.170Z,19.30
2023-01-09T08:58:04.676Z,19.30
2023-01-09T09:01:25.084Z,19.00
2023-01-09T09:12:19.069Z,19.40
2023-01-09T09:15:45.711Z,18.80
2023-01-09T09:23:29.901Z,19.80
2023-01-09T09:29:14.828Z,19.50
2023-01-09T09:44:52.678Z,21.30
2023-01-09T09:48:42.650Z,21.70
2023-01-09T09:51:41.290Z,21.60
2023-01-09T09:55:08.866Z,20.40
2023-01-09T11:02:38.397Z,22.30
2023-01-09T11:13:41.166Z,22.70
2023-01-09T11:16:46.354Z,23.20
2023-01-09T11:20:13.632Z,24.10
2023-01-09T11:24:06.722Z,24.20
2023-01-09T11:27:46.765Z,24.30
2023-01-09T11:31:33.404Z,25.30
2023-01-09T11:35:26.056Z,25.50
2023-01-09T11:38:53.546Z,27.10
2023-01-09T11:41:41.058Z,27.40
2023-01-09T11:44:34.603Z,26.90
2023-01-09T11:47:38.858Z,27.60
2023-01-09T11:50:48.770Z,26.40
2023-01-09T11:54:18.265Z,25.90
2023-01-09T11:57:05.252Z,25.00
2023-01-09T12:00:34.867Z,26.40
2023-01-09T12:04:10.977Z,24.80
2023-01-09T12:08:27.128Z,25.30
2023-01-09T12:11:44.672Z,26.20
2023-01-09T12:15:10.949Z,26.00
2023-01-09T12:22:34.658Z,27.60
2023-01-09T12:30:59.320Z,29.30
2023-01-09T12:34:52.668Z,27.40
2023-01-09T12:49:15.338Z,27.40
2023-01-09T12:53:00.466Z,27.00
2023-01-09T13:04:05.625Z,27.70
2023-01-09T13:10:50.561Z,27.70
2023-01-09T13:14:21.525Z,28.10
2023-01-09T13:18:06.178Z,27.20
2023-01-09T13:55:36.810Z,27.90
2023-01-09T14:29:49.186Z,25.80
2023-01-09T14:40:18.452Z,25.00
2023-01-09T15:02:05.746Z,26.20
2023-01-09T15:15:18.704Z,25.70
2023-01-09T15:19:01.743Z,25.70
2023-01-09T15:22:40.643Z,25.70
2023-01-09T15:26:00.548Z,25.10
2023-01-09T15:29:28.430Z,25.00
2023-01-09T15:36:03.065Z,25.30
2023-01-09T15:39:44.222Z,25.40
2023-01-09T15:43:20.199Z,24.30
2023-01-09T15:47:19.059Z,24.60
2023-01-09T15:50:31.213Z,25.00
2023-01-09T15:57:30.059Z,23.90
2023-01-09T16:18:56.749Z,24.20
2023-01-09T16:33:48.270Z,25.00
2023-01-09T16:40:51.705Z,25.20
2023-01-09T16:44:35.753Z,25.60
2023-01-09T16:55:14.998Z,26.90
2023-01-09T16:59:18.891Z,26.30
2023-01-09T17:02:59.180Z,26.70
2023-01-09T17:10:29.014Z,28.00
2023-01-09T17:46:00.386Z,28.80
2023-01-09T17:49:46.946Z,30.00
2023-01-09T17:57:53.966Z,29.50
2023-01-09T18:01:50.332Z,31.10
2023-01-09T18:12:55.166Z,33.40
2023-01-09T18:16:48.479Z,33.90
2023-01-09T18:24:20.170Z,35.00
2023-01-09T18:27:36.155Z,35.00
2023-01-09T18:31:29.604Z,34.60
2023-01-09T18:38:30.338Z,34.60
2023-01-09T18:41:26.451Z,33.90
2023-01-09T18:44:13.981Z,34.30
2023-01-09T18:47:02.683Z,34.00
2023-01-09T18:53:50.173Z,33.90
2023-01-09T18:56:46.940Z,33.90
2023-01-09T18:59:39.006Z,34.30
2023-01-09T19:02:27.202Z,33.30
2023-01-09T19:05:17.795Z,33.60
2023-01-09T19:08:07.386Z,33.70
2023-01-09T19:11:35.031Z,32.70
2023-01-09T19:14:22.866Z,32.50
2023-01-09T19:17:19.458Z,33.00
2023-01-09T19:24:30.123Z,32.80
2023-01-09T19:27:21.650Z,33.80
2023-01-09T19:30:10.519Z,36.20
2023-01-09T19:33:02.273Z,34.70
2023-01-09T19:35:54.795Z,32.80
2023-01-09T19:38:41.680Z,34.60
2023-01-09T19:41:30.367Z,33.50
2023-01-09T19:44:21.566Z,32.60
2023-01-09T19:47:14.200Z,33.40
2023-01-09T19:50:08.559Z,32.80
2023-01-09T19:52:56.804Z,32.80
2023-01-09T19:55:44.935Z,31.00
2023-01-09T19:58:34.815Z,31.50
2023-01-09T20:01:28.038Z,31.30
2023-01-09T20:04:18.764Z,32.40
2023-01-09T20:07:07.120Z,32.90
2023-01-09T20:09:54.098Z,32.60
2023-01-09T20:12:43.053Z,30.80
2023-01-09T20:15:31.906Z,31.60
2023-01-09T20:24:28.354Z,24.40
2023-01-09T20:27:16.695Z,28.30
2023-01-09T20:30:36.990Z,28.60
2023-01-09T20:33:45.856Z,26.40
2023-01-09T20:37:14.954Z,26.90
2023-01-09T20:40:03.526Z,26.80
2023-01-09T20:42:56.082Z,27.60
2023-01-09T20:46:28.993Z,26.90
2023-01-09T20:49:19.731Z,28.40
2023-01-09T20:52:10.904Z,27.80
2023-01-09T20:54:58.470Z,28.00
2023-01-09T20:57:45.915Z,28.20
2023-01-09T21:00:36.335Z,28.30
2023-01-09T21:03:24.680Z,28.50
2023-01-09T21:06:18.926Z,28.90
2023-01-09T21:09:07.708Z,28.00
2023-01-09T21:12:02.664Z,28.30
2023-01-09T21:15:19.352Z,27.60
2023-01-09T21:18:08.012Z,27.70
2023-01-09T21:20:55.773Z,28.00
2023-01-09T21:23:56.140Z,27.90
2023-01-09T21:26:48.843Z,28.00
2023-01-09T21:29:36.500Z,28.30
2023-01-09T21:32:25.203Z,29.10
2023-01-09T21:35:12.275Z,30.30
2023-01-09T21:38:00.424Z,31.30
2023-01-09T21:40:51.473Z,32.20
2023-01-09T21:43:57.863Z,31.50
2023-01-09T21:46:55.786Z,32.50
2023-01-09T21:49:44.614Z,33.50
2023-01-09T21:52:36.012Z,32.70
2023-01-09T21:55:22.988Z,34.80
2023-01-09T21:58:10.579Z,35.20
2023-01-09T22:01:00.483Z,35.40
2023-01-09T22:03:48.302Z,35.80
2023-01-09T22:06:36.598Z,36.00
2023-01-09T22:09:23.467Z,36.50
2023-01-09T22:12:12.774Z,36.30
2023-01-09T22:14:59.300Z,37.70
2023-01-09T22:17:46.598Z,37.70
2023-01-09T22:20:33.751Z,37.20
2023-01-09T22:23:21.196Z,38.80
2023-01-09T22:26:10.502Z,37.30
2023-01-09T22:28:57.346Z,40.40
2023-01-09T22:31:45.671Z,38.60
2023-01-09T22:34:32.815Z,37.70
2023-01-09T22:37:20.184Z,38.50
2023-01-09T22:40:07.571Z,38.10
2023-01-09T22:42:55.226Z,39.60
2023-01-09T22:45:43.591Z,39.60
2023-01-09T22:48:36.728Z,37.50
2023-01-09T22:51:24.249Z,39.30
2023-01-09T22:54:11.085Z,38.40
2023-01-09T22:56:58.620Z,38.40
2023-01-09T22:59:46.243Z,36.20
2023-01-09T23:02:38.368Z,38.90
2023-01-09T23:05:25.096Z,37.10
2023-01-09T23:08:12.306Z,37.90
2023-01-09T23:11:00.412Z,38.30
2023-01-09T23:13:47.568Z,38.00
2023-01-09T23:16:34.410Z,36.80
2023-01-09T23:19:21.800Z,38.00
2023-01-09T23:22:08.618Z,37.00
2023-01-09T23:24:55.305Z,36.60
2023-01-09T23:27:43.469Z,37.30
2023-01-09T23:30:31.416Z,36.20
2023-01-09T23:33:18.523Z,36.70
2023-01-09T23:36:05.623Z,35.80
2023-01-09T23:38:52.942Z,37.30
2023-01-09T23:41:59.485Z,36.10
2023-01-09T23:44:48.079Z,38.20
2023-01-09T23:47:34.550Z,42.00
2023-01-09T23:50:21.321Z,38.60
2023-01-09T23:53:09.340Z,38.00
2023-01-09T23:55:55.754Z,37.00
2023-01-09T23:58:43.501Z,36.20
